Invesco Field (Denver), Colorado
Current Conditions -  °F | °C
As of 1:55 PM on Monday 24 Nov 2014 (Local Time) from KBJC Reporting Station
Broken Clouds Broken Clouds  
Wind Chill: 30°   Ceiling: 15000
Heat Index: 39°   Visibility: 50mi
Dew Point:   Wind: 17mph
Humidity: 28%   Direction: 290°WNW
Pressure: 30.02"   Gusts: 28mph
Location:  39.74401°N, 105.0253°W
Report Text: KBJC 242055Z 29015G24KT 50SM FEW020 SCT090 BKN150 04/M13 A3002
Loading
Personal Weather Stations






























Interactive Weather Map New forecast layout! Learn more

10-Day Weather Forecast

Advertisements
Track Severe Weather on mobile